createdAt,value
2018-11-07T00:00:40.322Z,25.95
2018-11-07T00:03:09.223Z,25.40
2018-11-07T00:05:38.231Z,24.77
2018-11-07T00:08:07.237Z,26.85
2018-11-07T00:10:36.163Z,27.05
2018-11-07T00:13:05.365Z,24.15
2018-11-07T00:15:34.430Z,20.23
2018-11-07T00:18:03.321Z,19.82
2018-11-07T00:20:32.235Z,26.20
2018-11-07T00:23:01.138Z,18.57
2018-11-07T00:25:30.275Z,25.30
2018-11-07T00:27:59.266Z,25.27
2018-11-07T00:30:28.187Z,22.30
2018-11-07T00:32:57.123Z,23.40
2018-11-07T00:35:26.050Z,23.12
2018-11-07T00:37:55.026Z,19.37
2018-11-07T00:40:23.954Z,26.90
2018-11-07T00:42:52.850Z,23.00
2018-11-07T00:45:21.842Z,21.85
2018-11-07T00:47:50.810Z,21.62
2018-11-07T00:50:19.997Z,22.52
2018-11-07T00:52:48.903Z,22.62
2018-11-07T00:55:17.888Z,19.65
2018-11-07T00:57:46.799Z,24.15
2018-11-07T01:00:17.238Z,26.65
2018-11-07T01:02:47.087Z,23.85
2018-11-07T01:05:16.206Z,21.12
2018-11-07T01:07:46.228Z,21.68
2018-11-07T01:10:15.112Z,22.67
2018-11-07T01:12:44.229Z,25.27
2018-11-07T01:15:13.648Z,24.30
2018-11-07T01:17:42.593Z,22.42
2018-11-07T01:20:13.092Z,22.37
2018-11-07T01:22:42.015Z,22.98
2018-11-07T01:25:10.920Z,25.35
2018-11-07T01:27:39.889Z,22.73
2018-11-07T01:30:10.850Z,21.62
2018-11-07T01:32:39.871Z,20.30
2018-11-07T01:35:09.066Z,24.75
2018-11-07T01:37:38.195Z,19.00
2018-11-07T01:40:11.110Z,19.82
2018-11-07T01:42:40.049Z,19.70
2018-11-07T01:45:10.020Z,27.05
2018-11-07T01:47:38.910Z,20.20
2018-11-07T01:50:09.574Z,21.90
2018-11-07T01:52:38.514Z,20.68
2018-11-07T01:55:08.010Z,21.95
2018-11-07T01:57:37.097Z,23.52
2018-11-07T02:00:08.445Z,21.55
2018-11-07T02:02:37.358Z,29.60
2018-11-07T02:05:06.901Z,22.42
2018-11-07T02:07:35.782Z,20.23
2018-11-07T02:10:05.988Z,26.02
2018-11-07T02:12:34.913Z,24.15
2018-11-07T02:15:03.843Z,21.85
2018-11-07T02:17:32.734Z,23.38
2018-11-07T02:20:01.756Z,22.30
2018-11-07T02:22:30.691Z,22.27
2018-11-07T02:24:59.595Z,23.55
2018-11-07T02:27:28.506Z,24.57
2018-11-07T02:29:57.426Z,22.25
2018-11-07T02:32:26.342Z,23.45
2018-11-07T02:34:55.840Z,21.85
2018-11-07T02:37:24.742Z,26.02
2018-11-07T02:39:53.670Z,22.82
2018-11-07T02:42:22.664Z,20.72
2018-11-07T02:44:51.558Z,20.15
2018-11-07T02:47:20.470Z,26.73
2018-11-07T02:49:49.358Z,26.90
2018-11-07T02:52:18.254Z,21.62
2018-11-07T02:54:47.155Z,24.70
2018-11-07T02:57:16.066Z,24.82
2018-11-07T02:59:44.938Z,23.52
2018-11-07T03:02:13.863Z,22.50
2018-11-07T03:04:42.750Z,21.93
2018-11-07T03:07:11.630Z,22.62
2018-11-07T03:09:40.606Z,22.02
2018-11-07T03:12:09.522Z,22.75
2018-11-07T03:14:38.411Z,22.40
2018-11-07T03:17:07.299Z,25.02
2018-11-07T03:19:36.247Z,23.73
2018-11-07T03:22:05.484Z,25.17
2018-11-07T03:24:34.366Z,22.40
2018-11-07T03:27:03.330Z,21.15
2018-11-07T03:29:32.365Z,24.00
2018-11-07T03:32:01.326Z,25.50
2018-11-07T03:34:30.210Z,28.25
2018-11-07T03:36:59.106Z,24.15
2018-11-07T03:39:28.065Z,26.60
2018-11-07T03:41:56.990Z,22.22
2018-11-07T03:44:25.903Z,21.85
2018-11-07T03:46:54.824Z,23.25
2018-11-07T03:49:23.748Z,20.68
2018-11-07T03:51:52.683Z,21.68
2018-11-07T03:54:22.478Z,22.90
2018-11-07T03:56:53.442Z,20.30
2018-11-07T03:59:26.120Z,24.40
2018-11-07T04:01:55.912Z,23.40
2018-11-07T04:04:24.793Z,28.15
2018-11-07T04:06:53.713Z,22.98
2018-11-07T04:09:22.711Z,21.90
2018-11-07T04:11:51.646Z,19.57
2018-11-07T04:14:20.530Z,22.32
2018-11-07T04:16:53.525Z,21.80
2018-11-07T04:19:24.344Z,22.20
2018-11-07T04:21:53.306Z,23.73
2018-11-07T04:24:22.282Z,22.50
2018-11-07T04:26:51.281Z,23.70
2018-11-07T04:29:20.160Z,21.62
2018-11-07T04:31:50.207Z,20.62
2018-11-07T04:34:20.256Z,23.27
2018-11-07T04:36:52.070Z,20.90
2018-11-07T04:39:21.978Z,21.70
2018-11-07T04:41:51.801Z,20.92
2018-11-07T04:44:20.745Z,24.80
2018-11-07T04:46:49.597Z,23.18
2018-11-07T04:49:18.510Z,29.85
2018-11-07T04:51:47.504Z,23.73
2018-11-07T04:54:17.214Z,24.72
2018-11-07T04:56:47.225Z,21.48
2018-11-07T04:59:16.761Z,22.58
2018-11-07T05:01:45.706Z,24.23
2018-11-07T05:04:15.231Z,24.98
2018-11-07T05:06:44.141Z,19.85
2018-11-07T05:09:13.299Z,22.60
2018-11-07T05:11:44.386Z,27.20
2018-11-07T05:14:14.242Z,22.13
2018-11-07T05:16:44.118Z,20.77
2018-11-07T05:19:13.953Z,22.17
2018-11-07T05:21:42.851Z,23.42
2018-11-07T05:24:11.766Z,21.25
2018-11-07T05:26:40.757Z,21.85
2018-11-07T05:29:09.670Z,20.15
2018-11-07T05:31:40.007Z,19.77
2018-11-07T05:34:10.739Z,21.80
2018-11-07T05:36:40.503Z,21.90
2018-11-07T05:39:10.095Z,17.57
2018-11-07T05:41:38.997Z,18.20
2018-11-07T05:44:08.192Z,26.30
2018-11-07T05:46:37.150Z,20.37
2018-11-07T05:49:07.175Z,21.00
2018-11-07T05:51:37.091Z,24.67
2018-11-07T05:54:06.810Z,23.05
2018-11-07T05:56:36.742Z,19.67
2018-11-07T05:59:06.095Z,17.95
2018-11-07T06:01:34.986Z,21.12
2018-11-07T06:04:08.143Z,21.12
2018-11-07T06:06:37.371Z,16.80
2018-11-07T06:09:07.122Z,20.50
2018-11-07T06:11:37.218Z,24.07
2018-11-07T06:14:07.241Z,19.52
2018-11-07T06:16:37.234Z,19.40
2018-11-07T06:19:06.174Z,22.82
2018-11-07T06:21:35.095Z,24.87
2018-11-07T06:24:04.070Z,16.77
2018-11-07T06:26:33.074Z,20.55
2018-11-07T06:29:02.814Z,27.37
2018-11-07T06:31:33.758Z,22.25
2018-11-07T06:34:05.717Z,22.82
2018-11-07T06:36:37.475Z,24.07
2018-11-07T06:39:08.978Z,31.30
2018-11-07T06:41:38.114Z,20.57
2018-11-07T06:44:07.819Z,25.88
2018-11-07T06:46:36.766Z,24.77
2018-11-07T06:49:05.786Z,20.43
2018-11-07T06:51:35.565Z,24.72
2018-11-07T06:54:04.670Z,24.77
2018-11-07T06:56:33.575Z,17.02
2018-11-07T06:59:02.528Z,23.52
2018-11-07T07:01:31.569Z,34.23
2018-11-07T07:04:00.460Z,37.28
2018-11-07T07:06:29.359Z,38.83
2018-11-07T07:08:58.279Z,45.15
2018-11-07T07:11:27.222Z,50.48
2018-11-07T07:13:56.268Z,56.33
2018-11-07T07:16:25.243Z,52.75
2018-11-07T07:18:54.195Z,48.68
2018-11-07T07:21:23.139Z,45.40
2018-11-07T07:23:52.031Z,32.73
2018-11-07T07:26:21.214Z,34.35
2018-11-07T07:28:50.122Z,16.37
2018-11-07T07:31:18.978Z,23.02
2018-11-07T07:33:47.930Z,20.48
2018-11-07T07:36:16.755Z,20.85
2018-11-07T07:38:46.459Z,18.87
2018-11-07T07:41:15.479Z,17.65
2018-11-07T07:43:44.382Z,23.90
2018-11-07T07:46:13.260Z,15.48
2018-11-07T07:48:42.155Z,15.68
2018-11-07T07:51:11.072Z,20.35
2018-11-07T07:53:39.997Z,22.15
2018-11-07T07:56:08.877Z,19.90
2018-11-07T07:58:37.790Z,19.67
2018-11-07T08:01:06.701Z,27.42
2018-11-07T08:03:35.599Z,19.65
2018-11-07T08:06:04.501Z,18.27
2018-11-07T08:08:33.392Z,18.87
2018-11-07T08:11:02.295Z,21.73
2018-11-07T08:13:31.283Z,20.62
2018-11-07T08:16:00.083Z,20.57
2018-11-07T08:18:28.989Z,18.15
2018-11-07T08:20:57.891Z,14.13
2018-11-07T08:23:26.823Z,17.85
2018-11-07T08:25:55.771Z,15.83
2018-11-07T08:28:24.663Z,15.72
2018-11-07T08:30:53.712Z,16.37
2018-11-07T08:33:22.576Z,15.98
2018-11-07T08:35:51.541Z,19.27
2018-11-07T08:38:20.519Z,24.27
2018-11-07T08:40:50.101Z,14.45
2018-11-07T08:43:18.990Z,19.77
2018-11-07T08:45:47.878Z,15.68
2018-11-07T08:48:16.825Z,16.10
2018-11-07T08:50:45.702Z,17.52
2018-11-07T08:53:14.743Z,17.90
2018-11-07T08:55:43.627Z,17.00
2018-11-07T08:58:12.541Z,16.00
2018-11-07T09:00:41.447Z,24.18
2018-11-07T09:03:10.336Z,15.40
2018-11-07T09:05:39.225Z,17.30
2018-11-07T09:08:08.142Z,15.08
2018-11-07T09:10:37.071Z,18.55
2018-11-07T09:13:05.970Z,14.40
2018-11-07T09:15:34.847Z,17.92
2018-11-07T09:18:03.818Z,16.80
2018-11-07T09:20:32.711Z,17.73
2018-11-07T09:23:01.741Z,17.70
2018-11-07T09:25:30.654Z,15.40
2018-11-07T09:27:59.621Z,14.68
2018-11-07T09:30:28.515Z,18.92
2018-11-07T09:32:57.438Z,17.25
2018-11-07T09:35:26.358Z,15.38
2018-11-07T09:37:55.300Z,15.50
2018-11-07T09:40:24.231Z,16.52
2018-11-07T09:42:53.729Z,15.43
2018-11-07T09:45:23.334Z,14.90
2018-11-07T09:47:52.318Z,16.67
2018-11-07T09:50:21.274Z,13.22
2018-11-07T09:52:50.182Z,16.65
2018-11-07T09:55:20.276Z,19.45
2018-11-07T09:57:49.218Z,13.70
2018-11-07T10:00:19.406Z,17.57
2018-11-07T10:02:48.394Z,16.50
2018-11-07T10:05:18.421Z,13.78
2018-11-07T10:07:47.337Z,13.95
2018-11-07T10:10:18.618Z,12.37
2018-11-07T10:12:47.635Z,15.43
2018-11-07T10:15:16.822Z,12.23
2018-11-07T10:17:45.741Z,14.28
2018-11-07T10:20:17.416Z,15.53
2018-11-07T10:22:46.943Z,17.57
2018-11-07T10:25:16.147Z,14.15
2018-11-07T10:27:45.477Z,14.10
2018-11-07T10:30:16.832Z,17.20
2018-11-07T10:32:46.852Z,13.30
2018-11-07T10:35:15.793Z,15.85
2018-11-07T10:37:44.818Z,17.30
2018-11-07T10:40:20.814Z,13.62
2018-11-07T10:42:49.790Z,13.95
2018-11-07T10:45:18.742Z,17.15
2018-11-07T10:47:48.411Z,14.13
2018-11-07T10:50:18.423Z,14.38
2018-11-07T10:52:47.861Z,16.15
2018-11-07T10:55:17.500Z,13.93
2018-11-07T10:57:46.679Z,18.98
2018-11-07T11:00:21.539Z,19.62
2018-11-07T11:03:57.283Z,17.70
2018-11-07T11:06:27.456Z,15.50
2018-11-07T11:08:56.831Z,14.00
2018-11-07T11:11:26.265Z,19.10
2018-11-07T11:13:55.927Z,14.40
2018-11-07T11:16:25.276Z,13.78
2018-11-07T11:18:54.879Z,14.50
2018-11-07T11:21:24.146Z,14.03
2018-11-07T11:23:54.145Z,14.87
2018-11-07T11:26:23.843Z,18.10
2018-11-07T11:28:54.440Z,16.45
2018-11-07T11:31:24.374Z,14.40
2018-11-07T11:33:53.872Z,16.35
2018-11-07T11:36:23.005Z,13.13
2018-11-07T11:38:52.379Z,12.05
2018-11-07T11:41:21.485Z,16.10
2018-11-07T11:43:50.481Z,12.55
2018-11-07T11:46:19.577Z,16.50
2018-11-07T11:48:48.555Z,12.75
2018-11-07T11:51:17.667Z,15.35
2018-11-07T11:53:46.804Z,16.90
2018-11-07T11:56:16.194Z,14.00
2018-11-07T11:58:45.548Z,11.73
2018-11-07T12:01:14.638Z,14.57
2018-11-07T12:03:43.830Z,11.83
2018-11-07T12:06:12.863Z,13.05
2018-11-07T12:08:41.963Z,11.75
2018-11-07T12:11:10.843Z,11.93
2018-11-07T12:13:39.895Z,13.70
2018-11-07T12:16:08.941Z,15.15
2018-11-07T12:18:37.946Z,12.10
2018-11-07T12:21:06.914Z,12.37
2018-11-07T12:23:35.789Z,12.80
2018-11-07T12:26:04.722Z,17.10
2018-11-07T12:28:33.633Z,14.85
2018-11-07T12:31:02.521Z,14.50
2018-11-07T12:33:31.574Z,18.67
2018-11-07T12:36:00.484Z,12.97
2018-11-07T12:38:29.434Z,12.60
2018-11-07T12:40:58.353Z,11.88
2018-11-07T12:43:27.288Z,18.60
2018-11-07T12:45:56.203Z,10.88
2018-11-07T12:48:25.271Z,10.48
2018-11-07T12:50:54.264Z,12.07
2018-11-07T12:53:23.203Z,11.08
2018-11-07T12:55:52.190Z,10.00
2018-11-07T12:58:21.314Z,10.35
2018-11-07T13:00:50.005Z,12.83
2018-11-07T13:03:18.911Z,8.83
2018-11-07T13:05:47.778Z,9.70
2018-11-07T13:08:16.838Z,11.13
2018-11-07T13:10:45.752Z,9.80
2018-11-07T13:13:14.770Z,9.23
2018-11-07T13:15:43.662Z,9.53
2018-11-07T13:18:12.575Z,12.23
2018-11-07T13:20:41.463Z,13.30
2018-11-07T13:23:10.378Z,11.93
2018-11-07T13:25:39.290Z,11.60
2018-11-07T13:28:08.283Z,11.43
2018-11-07T13:30:37.148Z,11.30
2018-11-07T13:33:06.153Z,13.60
2018-11-07T13:35:35.032Z,13.40
2018-11-07T13:38:04.029Z,11.57
2018-11-07T13:40:33.003Z,13.88
2018-11-07T13:43:01.928Z,12.58
2018-11-07T13:45:30.897Z,14.38
2018-11-07T13:47:59.765Z,12.30
2018-11-07T13:50:28.755Z,15.00
2018-11-07T13:52:59.781Z,14.10
2018-11-07T13:55:28.704Z,16.23
2018-11-07T13:57:57.654Z,16.35
2018-11-07T14:00:26.746Z,15.45
2018-11-07T14:02:55.658Z,15.30
2018-11-07T14:05:24.880Z,12.97
2018-11-07T14:07:53.816Z,13.05
2018-11-07T14:10:25.449Z,15.20
2018-11-07T14:12:54.891Z,14.13
2018-11-07T14:15:23.938Z,12.68
2018-11-07T14:17:53.009Z,16.45
2018-11-07T14:20:22.020Z,14.20
2018-11-07T14:22:50.930Z,15.63
2018-11-07T14:25:19.927Z,16.80
2018-11-07T14:27:48.993Z,16.15
2018-11-07T14:30:19.253Z,22.55
2018-11-07T14:32:50.827Z,21.23
2018-11-07T14:35:19.802Z,18.23
2018-11-07T14:37:48.906Z,16.12
2018-11-07T14:40:17.963Z,19.42
2018-11-07T14:42:46.882Z,15.45
2018-11-07T14:45:16.053Z,15.95
2018-11-07T14:47:45.237Z,20.32
2018-11-07T14:50:14.339Z,21.02
2018-11-07T14:52:43.318Z,17.42
2018-11-07T14:55:12.749Z,16.02
2018-11-07T14:57:41.906Z,18.07
2018-11-07T15:00:12.206Z,18.12
2018-11-07T15:02:41.927Z,18.95
2018-11-07T15:05:12.187Z,21.77
2018-11-07T15:07:41.908Z,16.95
2018-11-07T15:10:11.919Z,18.70
2018-11-07T15:12:40.992Z,22.05
2018-11-07T15:15:11.979Z,20.05
2018-11-07T15:17:40.953Z,18.67
2018-11-07T15:20:11.168Z,21.62
2018-11-07T15:22:40.251Z,20.27
2018-11-07T15:25:10.465Z,16.85
2018-11-07T15:27:39.802Z,18.48
2018-11-07T15:30:10.446Z,18.45
2018-11-07T15:32:39.955Z,18.40
2018-11-07T15:35:09.350Z,19.57
2018-11-07T15:37:38.819Z,21.12
2018-11-07T15:40:10.942Z,22.95
2018-11-07T15:42:40.122Z,21.50
2018-11-07T15:45:10.723Z,19.17
2018-11-07T15:47:39.866Z,17.05
2018-11-07T15:50:14.162Z,22.20
2018-11-07T15:52:43.091Z,22.48
2018-11-07T15:55:12.357Z,20.90
2018-11-07T15:57:41.299Z,28.98
2018-11-07T16:00:12.556Z,26.85
2018-11-07T16:02:41.662Z,22.17
2018-11-07T16:05:11.974Z,20.40
2018-11-07T16:07:40.911Z,24.37
2018-11-07T16:10:11.370Z,24.75
2018-11-07T16:12:40.875Z,20.43
2018-11-07T16:15:11.712Z,21.33
2018-11-07T16:17:41.111Z,20.15
2018-11-07T16:20:11.962Z,26.10
2018-11-07T16:22:41.861Z,22.90
2018-11-07T16:25:10.739Z,25.80
2018-11-07T16:27:40.690Z,25.37
2018-11-07T16:30:13.010Z,24.65
2018-11-07T16:32:42.719Z,21.80
2018-11-07T16:35:13.933Z,24.63
2018-11-07T16:37:43.760Z,24.23
2018-11-07T16:40:14.340Z,20.68
2018-11-07T16:42:43.905Z,25.08
2018-11-07T16:45:14.086Z,23.65
2018-11-07T16:47:44.354Z,24.25
2018-11-07T16:50:14.873Z,22.40
2018-11-07T16:52:43.936Z,25.15
2018-11-07T16:55:12.822Z,21.85
2018-11-07T16:57:41.909Z,25.05
2018-11-07T17:00:16.450Z,19.95
2018-11-07T17:02:45.790Z,25.17
2018-11-07T17:05:15.195Z,21.73
2018-11-07T17:07:44.306Z,24.50
2018-11-07T17:10:13.867Z,23.50
2018-11-07T17:12:42.954Z,25.97
2018-11-07T17:15:12.083Z,22.80
2018-11-07T17:17:42.070Z,32.40
2018-11-07T17:20:12.414Z,23.98
2018-11-07T17:22:41.614Z,26.90
2018-11-07T17:25:14.503Z,29.50
2018-11-07T17:27:43.720Z,26.35
2018-11-07T17:30:13.626Z,27.27
2018-11-07T17:32:42.752Z,27.62
2018-11-07T17:35:13.208Z,24.60
2018-11-07T17:37:42.696Z,26.85
2018-11-07T17:40:14.074Z,26.05
2018-11-07T17:42:43.090Z,27.07
2018-11-07T17:45:14.022Z,25.32
2018-11-07T17:47:43.604Z,25.88
2018-11-07T17:50:14.504Z,21.45
2018-11-07T17:52:44.015Z,25.10
2018-11-07T17:55:14.268Z,23.75
2018-11-07T17:57:43.190Z,24.50
2018-11-07T18:00:20.409Z,21.12
2018-11-07T18:02:49.873Z,23.80
2018-11-07T18:05:19.122Z,22.75
2018-11-07T18:07:48.271Z,28.17
2018-11-07T18:10:18.282Z,34.25
2018-11-07T18:12:48.065Z,44.98
2018-11-07T18:15:18.978Z,27.85
2018-11-07T18:17:50.266Z,29.27
2018-11-07T18:20:20.873Z,24.52
2018-11-07T18:22:49.887Z,28.45
2018-11-07T18:25:18.862Z,26.17
2018-11-07T18:27:48.066Z,30.35
2018-11-07T18:30:17.754Z,26.35
2018-11-07T18:32:47.483Z,24.55
2018-11-07T18:35:17.894Z,30.65
2018-11-07T18:37:47.225Z,28.90
2018-11-07T18:40:18.910Z,27.52
2018-11-07T18:42:48.634Z,24.60
2018-11-07T18:45:17.599Z,29.30
2018-11-07T18:47:47.129Z,28.05
2018-11-07T18:50:17.709Z,25.68
2018-11-07T18:52:46.490Z,25.77
2018-11-07T18:55:16.446Z,33.70
2018-11-07T18:57:47.401Z,28.42
2018-11-07T19:00:17.814Z,32.80
2018-11-07T19:02:47.312Z,30.08
2018-11-07T19:05:16.320Z,26.80
2018-11-07T19:07:45.309Z,27.07
2018-11-07T19:10:17.139Z,28.62
2018-11-07T19:12:46.978Z,29.30
2018-11-07T19:15:16.449Z,26.42
2018-11-07T19:17:46.267Z,21.60
2018-11-07T19:20:15.992Z,23.20
2018-11-07T19:22:44.970Z,26.60
2018-11-07T19:25:15.517Z,24.40
2018-11-07T19:27:44.459Z,28.47
2018-11-07T19:30:16.130Z,27.13
2018-11-07T19:32:46.149Z,26.90
2018-11-07T19:35:15.871Z,26.77
2018-11-07T19:37:46.018Z,32.45
2018-11-07T19:40:16.619Z,29.30
2018-11-07T19:42:45.510Z,27.10
2018-11-07T19:45:15.931Z,24.85
2018-11-07T19:47:44.851Z,26.17
2018-11-07T19:50:15.129Z,25.77
2018-11-07T19:52:44.482Z,28.92
2018-11-07T19:55:15.436Z,25.15
2018-11-07T19:57:47.033Z,25.72
2018-11-07T20:00:16.898Z,28.52
2018-11-07T20:02:46.508Z,31.68
2018-11-07T20:05:15.520Z,31.02
2018-11-07T20:07:44.534Z,26.33
2018-11-07T20:10:15.201Z,26.33
2018-11-07T20:12:44.435Z,31.40
2018-11-07T20:15:14.527Z,25.52
2018-11-07T20:17:43.444Z,26.55
2018-11-07T20:20:12.843Z,25.65
2018-11-07T20:22:41.720Z,21.45
2018-11-07T20:25:11.798Z,26.37
2018-11-07T20:27:40.991Z,26.80
2018-11-07T20:30:11.771Z,26.00
2018-11-07T20:32:40.763Z,28.45
2018-11-07T20:35:12.146Z,25.97
2018-11-07T20:37:41.055Z,22.42
2018-11-07T20:40:12.406Z,30.52
2018-11-07T20:42:41.375Z,23.77
2018-11-07T20:45:11.342Z,25.77
2018-11-07T20:47:40.283Z,25.88
2018-11-07T20:50:11.674Z,21.20
2018-11-07T20:52:41.079Z,21.25
2018-11-07T20:55:10.807Z,21.85
2018-11-07T20:57:39.684Z,29.42
2018-11-07T21:00:12.578Z,22.22
2018-11-07T21:02:42.221Z,26.68
2018-11-07T21:05:11.367Z,28.32
2018-11-07T21:07:40.693Z,32.80
2018-11-07T21:10:13.252Z,26.42
2018-11-07T21:12:42.549Z,29.77
2018-11-07T21:15:12.621Z,27.52
2018-11-07T21:17:42.338Z,21.37
2018-11-07T21:20:11.269Z,34.95
2018-11-07T21:22:40.710Z,27.58
2018-11-07T21:25:09.742Z,27.45
2018-11-07T21:27:38.839Z,25.97
2018-11-07T21:30:10.222Z,26.30
2018-11-07T21:32:39.398Z,21.42
2018-11-07T21:35:08.541Z,21.82
2018-11-07T21:37:37.571Z,24.52
2018-11-07T21:40:11.806Z,21.68
2018-11-07T21:42:40.779Z,21.77
2018-11-07T21:45:11.313Z,24.52
2018-11-07T21:47:40.837Z,22.67
2018-11-07T21:50:11.280Z,24.77
2018-11-07T21:52:40.378Z,22.27
2018-11-07T21:55:09.334Z,22.45
2018-11-07T21:57:38.548Z,25.23
2018-11-07T22:00:10.558Z,24.43
2018-11-07T22:02:39.540Z,26.97
2018-11-07T22:05:08.994Z,21.60
2018-11-07T22:07:38.118Z,25.32
2018-11-07T22:10:07.838Z,20.55
2018-11-07T22:12:36.734Z,24.40
2018-11-07T22:15:06.402Z,25.50
2018-11-07T22:17:35.350Z,20.12
2018-11-07T22:20:06.501Z,18.70
2018-11-07T22:22:35.451Z,20.15
2018-11-07T22:25:04.480Z,15.80
2018-11-07T22:27:33.387Z,18.17
2018-11-07T22:30:02.346Z,16.65
2018-11-07T22:32:31.299Z,16.48
2018-11-07T22:35:00.267Z,17.95
2018-11-07T22:37:29.166Z,18.23
2018-11-07T22:39:58.099Z,18.73
2018-11-07T22:42:27.043Z,23.38
2018-11-07T22:44:56.125Z,19.82
2018-11-07T22:47:25.247Z,21.57
2018-11-07T22:49:54.423Z,20.45
2018-11-07T22:52:23.386Z,21.68
2018-11-07T22:54:52.321Z,22.73
2018-11-07T22:57:22.400Z,32.48
2018-11-07T22:59:51.306Z,27.62
2018-11-07T23:02:20.218Z,21.70
2018-11-07T23:04:49.124Z,21.80
2018-11-07T23:07:18.023Z,17.32
2018-11-07T23:09:47.100Z,21.40
2018-11-07T23:12:16.019Z,21.75
2018-11-07T23:14:44.964Z,23.00
2018-11-07T23:17:13.907Z,19.42
2018-11-07T23:19:42.894Z,18.80
2018-11-07T23:22:11.795Z,20.97
2018-11-07T23:24:40.707Z,17.98
2018-11-07T23:27:09.633Z,16.48
2018-11-07T23:29:38.550Z,20.17
2018-11-07T23:32:07.624Z,17.70
2018-11-07T23:34:36.531Z,22.35
2018-11-07T23:37:05.758Z,17.57
2018-11-07T23:39:34.731Z,17.00
2018-11-07T23:42:03.686Z,17.55
2018-11-07T23:44:32.664Z,16.40
2018-11-07T23:47:01.587Z,18.57
2018-11-07T23:49:30.631Z,15.00
2018-11-07T23:51:59.579Z,13.43
2018-11-07T23:54:28.500Z,13.35
2018-11-07T23:56:57.659Z,13.32
2018-11-07T23:59:26.610Z,14.15
